Fort Cobb, OK (73038)

4:52 AM CDT on September 16, 2014 (GMT -0500)
Peck's country | Change Station
CLOSE
Current Station
Personal Weather Station
Location: Anadarko, OK
Elevation: 1255 ft
Nearby Weather Stations
4.0 Earthquake: Guthrie, Oklahoma (13 hours ago)  

Elev 1255 ft 35.10 °N, 98.32 °W | Updated 2 minutes ago

Mostly Cloudy
Mostly Cloudy
71.0 °F
Feels Like 71.0 °F
N
5.0
Wind Variable Wind from NE
Gusts 7.0 mph

Today
High -- | Low -- °F
--% Chance of Precip.
Yesterday
High -- | Low -- °F
Precip. -- in
7:17 AM 7:39 PM
Waning Gibbous, 47% visible
Pressure 30.11 in
Visibility 10.0 miles
Clouds Few 14000 ft
Dew Point 67 °F
Humidity 86%
Rainfall 0.00 in
Snow Depth Not available.
UV 0 out of 12
Pollen 7.80 out of 12
Air Quality Not available.
Flu Activity Not available.
METAR KFSI 160858Z AUTO 12002KT 10SM FEW140 22/20 A3013 RMK AO2 SLP194 T02210203 55003

More Conditions Fewer Conditions

Pressure 30.11 in
Visibility 10.0 miles
Clouds Few 14000 ft
Dew Point 67 °F
Humidity 86%
Rainfall 0.00 in
Snow Depth Not available.
UV 0 out of 12
Pollen 7.80 out of 12
Air Quality Not available.
Flu Activity Not available.
METAR KFSI 160858Z AUTO 12002KT 10SM FEW140 22/20 A3013 RMK AO2 SLP194 T02210203 55003

More Conditions Fewer Conditions

10-Day Weather Forecast

Almanac

Astronomy

Sep. 16, 2014 Rise Set
Actual Time 7:17 AM CDT 7:39 PM CDT
Civil Twilight 6:51 AM CDT 8:04 PM CDT
Nautical Twilight 6:22 AM CDT 8:34 PM CDT
Astronomical Twilight 5:51 AM CDT 9:04 PM CDT
Moon 12:38 AM CDT 2:54 PM CDT
Length of Visible Light 13h 12m
Length of Day
12h 21m
Tomorrow will be 2m 10s shorter.
Waning Gibbous, 47% of the Moon is Illuminated
Today
Waning Gibbous
Sep 24
New
Oct 1
First Quarter
Oct 8
Full
Oct 15
Last Quarter

Today's Extremes

State Highs State Lows

Community

WunderPhotos

Upload Photos

1,753,714 photos uploaded!

WunderBlogs® & News

Nearby

Snow Depth

Station Depth Elevation
No new snow has been reported.

Earthquake Activity

City Distance Mag. Time & Date
Guthrie, Oklahoma 75 miles 2.7 4:00 PM CDT
2014-09-15
Guthrie, Oklahoma 75 miles 3.2 3:14 PM CDT
2014-09-15
Guthrie, Oklahoma 75 miles 4.0 3:08 PM CDT
2014-09-15
Enid, Oklahoma 109 miles 3.1 8:27 AM CDT
2014-09-15
Minimum magnitude displayed is 2.5.

Coastal Water Temperatures

Place Temperature
No Stations Reporting

Nearby Weather Stations